sensor_id;sensor_type;location;lat;lon;timestamp;temperature;humidity
23083;DHT22;11709;52.420;10.538;2022-11-20T00:01:47;-0.80;99.90
23083;DHT22;11709;52.420;10.538;2022-11-20T00:06:04;-0.60;99.90
23083;DHT22;11709;52.420;10.538;2022-11-20T00:10:07;-0.80;99.90
23083;DHT22;11709;52.420;10.538;2022-11-20T00:14:10;-0.80;99.90
23083;DHT22;11709;52.420;10.538;2022-11-20T00:18:12;-0.70;99.90
23083;DHT22;11709;52.420;10.538;2022-11-20T00:26:19;-0.30;99.90
23083;DHT22;11709;52.420;10.538;2022-11-20T00:30:22;-0.60;99.90
23083;DHT22;11709;52.420;10.538;2022-11-20T00:34:24;-0.50;99.90
23083;DHT22;11709;52.420;10.538;2022-11-20T00:38:27;-0.60;99.90
23083;DHT22;11709;52.420;10.538;2022-11-20T00:42:29;-0.20;99.90
23083;DHT22;11709;52.420;10.538;2022-11-20T00:46:33;-0.60;99.90
23083;DHT22;11709;52.420;10.538;2022-11-20T00:50:36;-0.60;99.90
23083;DHT22;11709;52.420;10.538;2022-11-20T00:54:38;-0.60;99.90
23083;DHT22;11709;52.420;10.538;2022-11-20T00:58:43;-0.50;99.90
23083;DHT22;11709;52.420;10.538;2022-11-20T01:02:46;-0.60;99.90
23083;DHT22;11709;52.420;10.538;2022-11-20T01:06:48;-0.60;99.90
23083;DHT22;11709;52.420;10.538;2022-11-20T01:10:51;-0.50;99.90
23083;DHT22;11709;52.420;10.538;2022-11-20T01:14:53;-0.60;99.90
23083;DHT22;11709;52.420;10.538;2022-11-20T01:18:58;-0.60;99.90
23083;DHT22;11709;52.420;10.538;2022-11-20T01:23:01;-0.40;99.90
23083;DHT22;11709;52.420;10.538;2022-11-20T01:27:04;-0.60;99.90
23083;DHT22;11709;52.420;10.538;2022-11-20T01:31:21;-0.60;99.90
23083;DHT22;11709;52.420;10.538;2022-11-20T01:35:24;-0.80;99.90
23083;DHT22;11709;52.420;10.538;2022-11-20T01:39:27;2.80;99.90
23083;DHT22;11709;52.420;10.538;2022-11-20T01:43:29;-0.60;99.90
23083;DHT22;11709;52.420;10.538;2022-11-20T01:47:47;-0.50;99.90
23083;DHT22;11709;52.420;10.538;2022-11-20T01:51:52;-0.50;99.90
23083;DHT22;11709;52.420;10.538;2022-11-20T01:55:53;-0.50;99.90
23083;DHT22;11709;52.420;10.538;2022-11-20T02:00:10;-0.50;99.90
23083;DHT22;11709;52.420;10.538;2022-11-20T02:04:12;-0.60;99.90
23083;DHT22;11709;52.420;10.538;2022-11-20T02:08:16;-0.60;99.90
23083;DHT22;11709;52.420;10.538;2022-11-20T02:12:19;-0.40;99.90
23083;DHT22;11709;52.420;10.538;2022-11-20T02:16:45;-0.70;99.90
23083;DHT22;11709;52.420;10.538;2022-11-20T02:20:55;-0.60;99.90
23083;DHT22;11709;52.420;10.538;2022-11-20T02:24:53;-0.80;99.90
23083;DHT22;11709;52.420;10.538;2022-11-20T02:37:01;-0.60;99.90
23083;DHT22;11709;52.420;10.538;2022-11-20T02:41:04;-0.80;99.90
23083;DHT22;11709;52.420;10.538;2022-11-20T02:45:07;-1.00;99.90
23083;DHT22;11709;52.420;10.538;2022-11-20T02:53:12;-1.00;99.90
23083;DHT22;11709;52.420;10.538;2022-11-20T02:57:14;-0.80;99.90
23083;DHT22;11709;52.420;10.538;2022-11-20T03:01:17;-1.00;99.90
23083;DHT22;11709;52.420;10.538;2022-11-20T03:13:25;-0.50;99.90
23083;DHT22;11709;52.420;10.538;2022-11-20T03:33:40;-1.00;99.90
23083;DHT22;11709;52.420;10.538;2022-11-20T03:37:43;-0.80;99.90
23083;DHT22;11709;52.420;10.538;2022-11-20T03:45:49;-1.00;99.90
23083;DHT22;11709;52.420;10.538;2022-11-20T03:49:51;-1.20;99.90
23083;DHT22;11709;52.420;10.538;2022-11-20T03:53:59;-1.10;99.90
23083;DHT22;11709;52.420;10.538;2022-11-20T03:57:59;-1.30;99.90
23083;DHT22;11709;52.420;10.538;2022-11-20T04:02:01;-0.10;99.90
23083;DHT22;11709;52.420;10.538;2022-11-20T04:06:15;-1.00;99.90
23083;DHT22;11709;52.420;10.538;2022-11-20T04:10:19;-1.00;99.90
23083;DHT22;11709;52.420;10.538;2022-11-20T04:14:21;-0.90;99.90
23083;DHT22;11709;52.420;10.538;2022-11-20T04:18:24;-0.80;99.90
23083;DHT22;11709;52.420;10.538;2022-11-20T04:22:26;-0.90;99.90
23083;DHT22;11709;52.420;10.538;2022-11-20T04:30:32;-1.20;99.90
23083;DHT22;11709;52.420;10.538;2022-11-20T04:50:44;-1.30;99.90
23083;DHT22;11709;52.420;10.538;2022-11-20T04:54:47;-1.20;99.90
23083;DHT22;11709;52.420;10.538;2022-11-20T04:58:49;-1.50;99.90
23083;DHT22;11709;52.420;10.538;2022-11-20T05:02:52;-1.00;99.90
23083;DHT22;11709;52.420;10.538;2022-11-20T05:06:54;-1.10;99.90
23083;DHT22;11709;52.420;10.538;2022-11-20T05:11:02;-1.40;99.90
23083;DHT22;11709;52.420;10.538;2022-11-20T05:23:10;-1.20;99.90
23083;DHT22;11709;52.420;10.538;2022-11-20T05:39:20;-0.80;99.90
23083;DHT22;11709;52.420;10.538;2022-11-20T05:43:23;-1.10;99.90
23083;DHT22;11709;52.420;10.538;2022-11-20T05:47:27;-1.10;99.90
23083;DHT22;11709;52.420;10.538;2022-11-20T06:07:39;-0.90;99.90
23083;DHT22;11709;52.420;10.538;2022-11-20T06:19:53;-0.20;99.90
23083;DHT22;11709;52.420;10.538;2022-11-20T06:23:56;-1.00;99.90
23083;DHT22;11709;52.420;10.538;2022-11-20T06:27:58;-1.10;99.90
23083;DHT22;11709;52.420;10.538;2022-11-20T06:32:01;-0.90;99.90
23083;DHT22;11709;52.420;10.538;2022-11-20T06:52:13;-0.80;99.90
23083;DHT22;11709;52.420;10.538;2022-11-20T07:00:18;0.40;99.90
23083;DHT22;11709;52.420;10.538;2022-11-20T07:20:30;-1.20;99.90
23083;DHT22;11709;52.420;10.538;2022-11-20T07:24:33;-1.80;99.90
23083;DHT22;11709;52.420;10.538;2022-11-20T07:28:37;-1.20;99.90
23083;DHT22;11709;52.420;10.538;2022-11-20T07:32:39;-0.80;99.90
23083;DHT22;11709;52.420;10.538;2022-11-20T07:36:42;-1.00;99.90
23083;DHT22;11709;52.420;10.538;2022-11-20T07:56:54;-1.00;99.90
23083;DHT22;11709;52.420;10.538;2022-11-20T08:04:59;-0.80;99.90
23083;DHT22;11709;52.420;10.538;2022-11-20T08:21:26;-0.50;99.90
23083;DHT22;11709;52.420;10.538;2022-11-20T08:25:29;-2.00;99.90
23083;DHT22;11709;52.420;10.538;2022-11-20T08:29:32;-1.00;99.90
23083;DHT22;11709;52.420;10.538;2022-11-20T08:33:35;-0.30;99.90
23083;DHT22;11709;52.420;10.538;2022-11-20T08:41:41;-0.70;99.90
23083;DHT22;11709;52.420;10.538;2022-11-20T08:45:44;-0.10;99.90
23083;DHT22;11709;52.420;10.538;2022-11-20T08:49:46;-0.60;99.90
23083;DHT22;11709;52.420;10.538;2022-11-20T08:53:49;-1.30;99.90
23083;DHT22;11709;52.420;10.538;2022-11-20T08:57:51;0.20;99.90
23083;DHT22;11709;52.420;10.538;2022-11-20T09:01:54;0.60;99.90
23083;DHT22;11709;52.420;10.538;2022-11-20T09:06:00;-0.10;99.90
23083;DHT22;11709;52.420;10.538;2022-11-20T09:10:03;0.00;99.90
23083;DHT22;11709;52.420;10.538;2022-11-20T09:14:06;-0.20;99.90
23083;DHT22;11709;52.420;10.538;2022-11-20T09:18:08;0.10;99.90
23083;DHT22;11709;52.420;10.538;2022-11-20T09:22:11;0.10;99.90
23083;DHT22;11709;52.420;10.538;2022-11-20T09:26:14;0.20;99.90
23083;DHT22;11709;52.420;10.538;2022-11-20T09:30:16;0.20;99.90
23083;DHT22;11709;52.420;10.538;2022-11-20T09:34:19;0.20;99.90
23083;DHT22;11709;52.420;10.538;2022-11-20T09:38:21;0.30;99.90
23083;DHT22;11709;52.420;10.538;2022-11-20T09:42:37;0.30;99.90
23083;DHT22;11709;52.420;10.538;2022-11-20T09:46:53;0.50;99.90
23083;DHT22;11709;52.420;10.538;2022-11-20T09:51:00;0.50;99.90
23083;DHT22;11709;52.420;10.538;2022-11-20T09:55:02;0.30;99.90
23083;DHT22;11709;52.420;10.538;2022-11-20T09:59:07;0.50;99.90
23083;DHT22;11709;52.420;10.538;2022-11-20T10:03:20;0.40;99.90
23083;DHT22;11709;52.420;10.538;2022-11-20T10:07:30;0.80;99.90
23083;DHT22;11709;52.420;10.538;2022-11-20T10:11:39;1.00;99.90
23083;DHT22;11709;52.420;10.538;2022-11-20T10:15:52;1.00;99.90
23083;DHT22;11709;52.420;10.538;2022-11-20T10:19:59;1.00;99.90
23083;DHT22;11709;52.420;10.538;2022-11-20T10:32:56;1.00;99.90
23083;DHT22;11709;52.420;10.538;2022-11-20T10:41:16;1.10;99.90
23083;DHT22;11709;52.420;10.538;2022-11-20T10:45:36;1.20;99.90
23083;DHT22;11709;52.420;10.538;2022-11-20T10:49:35;1.20;99.90
23083;DHT22;11709;52.420;10.538;2022-11-20T10:58:38;1.30;99.90
23083;DHT22;11709;52.420;10.538;2022-11-20T11:02:49;1.40;99.90
23083;DHT22;11709;52.420;10.538;2022-11-20T11:07:03;1.60;99.90
23083;DHT22;11709;52.420;10.538;2022-11-20T11:11:21;1.90;99.90
23083;DHT22;11709;52.420;10.538;2022-11-20T11:15:25;1.70;99.90
23083;DHT22;11709;52.420;10.538;2022-11-20T11:23:34;1.60;99.90
23083;DHT22;11709;52.420;10.538;2022-11-20T11:27:48;1.80;99.90
23083;DHT22;11709;52.420;10.538;2022-11-20T11:31:51;1.30;99.90
23083;DHT22;11709;52.420;10.538;2022-11-20T11:35:57;1.70;99.90
23083;DHT22;11709;52.420;10.538;2022-11-20T11:40:01;1.70;99.90
23083;DHT22;11709;52.420;10.538;2022-11-20T11:44:24;1.60;99.90
23083;DHT22;11709;52.420;10.538;2022-11-20T11:48:57;1.80;99.90
23083;DHT22;11709;52.420;10.538;2022-11-20T11:53:14;0.80;99.90
23083;DHT22;11709;52.420;10.538;2022-11-20T11:57:38;0.90;99.90
23083;DHT22;11709;52.420;10.538;2022-11-20T12:05:43;0.60;99.90
23083;DHT22;11709;52.420;10.538;2022-11-20T12:09:49;0.60;99.90
23083;DHT22;11709;52.420;10.538;2022-11-20T12:18:19;1.70;99.90
23083;DHT22;11709;52.420;10.538;2022-11-20T12:22:35;1.40;99.90
23083;DHT22;11709;52.420;10.538;2022-11-20T12:31:13;1.20;99.90
23083;DHT22;11709;52.420;10.538;2022-11-20T12:35:40;1.30;99.90
23083;DHT22;11709;52.420;10.538;2022-11-20T12:39:42;1.30;99.90
23083;DHT22;11709;52.420;10.538;2022-11-20T12:44:03;1.20;99.90
23083;DHT22;11709;52.420;10.538;2022-11-20T12:48:33;1.10;99.90
23083;DHT22;11709;52.420;10.538;2022-11-20T12:52:38;1.10;99.90
23083;DHT22;11709;52.420;10.538;2022-11-20T12:56:51;1.40;99.90
23083;DHT22;11709;52.420;10.538;2022-11-20T13:01:11;1.90;99.90
23083;DHT22;11709;52.420;10.538;2022-11-20T13:09:46;1.80;99.90
23083;DHT22;11709;52.420;10.538;2022-11-20T13:18:13;1.60;99.90
23083;DHT22;11709;52.420;10.538;2022-11-20T13:22:41;1.80;99.90
23083;DHT22;11709;52.420;10.538;2022-11-20T13:26:28;1.70;99.90
23083;DHT22;11709;52.420;10.538;2022-11-20T13:30:31;1.70;99.90
23083;DHT22;11709;52.420;10.538;2022-11-20T13:34:34;1.60;99.90
23083;DHT22;11709;52.420;10.538;2022-11-20T13:38:49;2.00;99.90
23083;DHT22;11709;52.420;10.538;2022-11-20T13:43:01;2.00;99.90
23083;DHT22;11709;52.420;10.538;2022-11-20T13:47:00;1.90;99.90
23083;DHT22;11709;52.420;10.538;2022-11-20T13:51:10;1.90;99.90
23083;DHT22;11709;52.420;10.538;2022-11-20T13:55:16;1.80;99.90
23083;DHT22;11709;52.420;10.538;2022-11-20T14:03:47;1.20;99.90
23083;DHT22;11709;52.420;10.538;2022-11-20T14:07:52;1.20;99.90
23083;DHT22;11709;52.420;10.538;2022-11-20T14:11:54;1.10;99.90
23083;DHT22;11709;52.420;10.538;2022-11-20T14:15:58;1.10;99.90
23083;DHT22;11709;52.420;10.538;2022-11-20T14:20:06;1.00;99.90
23083;DHT22;11709;52.420;10.538;2022-11-20T14:24:11;0.90;99.90
23083;DHT22;11709;52.420;10.538;2022-11-20T14:28:24;0.90;99.90
23083;DHT22;11709;52.420;10.538;2022-11-20T14:32:28;0.90;99.90
23083;DHT22;11709;52.420;10.538;2022-11-20T14:36:31;0.80;99.90
23083;DHT22;11709;52.420;10.538;2022-11-20T14:40:35;0.80;99.90
23083;DHT22;11709;52.420;10.538;2022-11-20T14:44:37;0.80;99.90
23083;DHT22;11709;52.420;10.538;2022-11-20T14:48:53;0.80;99.90
23083;DHT22;11709;52.420;10.538;2022-11-20T14:52:56;0.90;99.90
23083;DHT22;11709;52.420;10.538;2022-11-20T14:57:03;0.80;99.90
23083;DHT22;11709;52.420;10.538;2022-11-20T15:01:12;0.70;99.90
23083;DHT22;11709;52.420;10.538;2022-11-20T15:05:12;0.70;99.90
23083;DHT22;11709;52.420;10.538;2022-11-20T15:09:15;1.10;99.90
23083;DHT22;11709;52.420;10.538;2022-11-20T15:13:31;1.40;99.90
23083;DHT22;11709;52.420;10.538;2022-11-20T15:17:36;0.90;99.90
23083;DHT22;11709;52.420;10.538;2022-11-20T15:21:39;0.50;99.90
23083;DHT22;11709;52.420;10.538;2022-11-20T15:25:42;0.60;99.90
23083;DHT22;11709;52.420;10.538;2022-11-20T15:29:45;0.60;99.90
23083;DHT22;11709;52.420;10.538;2022-11-20T15:33:47;0.70;99.90
23083;DHT22;11709;52.420;10.538;2022-11-20T15:37:50;0.60;99.90
23083;DHT22;11709;52.420;10.538;2022-11-20T15:41:53;0.70;99.90
23083;DHT22;11709;52.420;10.538;2022-11-20T15:46:03;0.70;99.90
23083;DHT22;11709;52.420;10.538;2022-11-20T15:50:10;0.80;99.90
23083;DHT22;11709;52.420;10.538;2022-11-20T15:54:15;0.70;99.90
23083;DHT22;11709;52.420;10.538;2022-11-20T15:58:19;0.60;99.90
23083;DHT22;11709;52.420;10.538;2022-11-20T16:02:23;0.60;99.90
23083;DHT22;11709;52.420;10.538;2022-11-20T16:06:26;0.50;99.90
23083;DHT22;11709;52.420;10.538;2022-11-20T16:10:28;0.50;99.90
23083;DHT22;11709;52.420;10.538;2022-11-20T16:14:31;0.30;99.90
23083;DHT22;11709;52.420;10.538;2022-11-20T16:18:51;0.40;99.90
23083;DHT22;11709;52.420;10.538;2022-11-20T16:22:54;0.40;99.90
23083;DHT22;11709;52.420;10.538;2022-11-20T16:26:57;0.40;99.90
23083;DHT22;11709;52.420;10.538;2022-11-20T16:31:07;0.40;99.90
23083;DHT22;11709;52.420;10.538;2022-11-20T16:35:06;0.30;99.90
23083;DHT22;11709;52.420;10.538;2022-11-20T16:39:10;0.20;99.90
23083;DHT22;11709;52.420;10.538;2022-11-20T16:43:14;0.10;99.90
23083;DHT22;11709;52.420;10.538;2022-11-20T16:47:16;0.00;99.90
23083;DHT22;11709;52.420;10.538;2022-11-20T16:51:19;-0.10;99.90
23083;DHT22;11709;52.420;10.538;2022-11-20T16:55:22;-0.20;99.90
23083;DHT22;11709;52.420;10.538;2022-11-20T16:59:25;-0.30;99.90
23083;DHT22;11709;52.420;10.538;2022-11-20T17:03:27;-0.40;99.90
23083;DHT22;11709;52.420;10.538;2022-11-20T17:07:30;-0.50;99.90
23083;DHT22;11709;52.420;10.538;2022-11-20T17:11:32;-0.60;99.90
23083;DHT22;11709;52.420;10.538;2022-11-20T17:15:35;0.40;99.90
23083;DHT22;11709;52.420;10.538;2022-11-20T17:19:37;-0.40;99.90
23083;DHT22;11709;52.420;10.538;2022-11-20T17:23:41;-0.70;99.90
23083;DHT22;11709;52.420;10.538;2022-11-20T17:27:44;-0.80;99.90
23083;DHT22;11709;52.420;10.538;2022-11-20T17:31:47;-0.80;99.90
23083;DHT22;11709;52.420;10.538;2022-11-20T17:35:49;-0.90;99.90
23083;DHT22;11709;52.420;10.538;2022-11-20T17:39:52;-0.80;99.90
23083;DHT22;11709;52.420;10.538;2022-11-20T17:43:56;-0.80;99.90
23083;DHT22;11709;52.420;10.538;2022-11-20T17:47:59;-0.90;99.90
23083;DHT22;11709;52.420;10.538;2022-11-20T17:52:01;-0.90;99.90
23083;DHT22;11709;52.420;10.538;2022-11-20T17:56:04;-0.80;99.90
23083;DHT22;11709;52.420;10.538;2022-11-20T18:00:25;-0.90;99.90
23083;DHT22;11709;52.420;10.538;2022-11-20T18:04:28;-0.90;99.90
23083;DHT22;11709;52.420;10.538;2022-11-20T18:08:31;-0.90;99.90
23083;DHT22;11709;52.420;10.538;2022-11-20T18:12:33;-0.90;99.90
23083;DHT22;11709;52.420;10.538;2022-11-20T18:16:38;-0.90;99.90
23083;DHT22;11709;52.420;10.538;2022-11-20T18:20:43;-0.90;99.90
23083;DHT22;11709;52.420;10.538;2022-11-20T18:24:45;-0.90;99.90
23083;DHT22;11709;52.420;10.538;2022-11-20T18:28:48;-0.90;99.90
23083;DHT22;11709;52.420;10.538;2022-11-20T18:32:50;-0.90;99.90
23083;DHT22;11709;52.420;10.538;2022-11-20T18:36:53;-1.10;99.90
23083;DHT22;11709;52.420;10.538;2022-11-20T18:40:55;-0.90;99.90
23083;DHT22;11709;52.420;10.538;2022-11-20T18:44:58;-0.80;99.90
23083;DHT22;11709;52.420;10.538;2022-11-20T18:49:01;-0.80;99.90
23083;DHT22;11709;52.420;10.538;2022-11-20T18:53:04;-0.80;99.90
23083;DHT22;11709;52.420;10.538;2022-11-20T18:57:07;1.00;99.90
23083;DHT22;11709;52.420;10.538;2022-11-20T19:01:11;-1.00;99.90
23083;DHT22;11709;52.420;10.538;2022-11-20T19:05:13;-1.00;99.90
23083;DHT22;11709;52.420;10.538;2022-11-20T19:09:16;-1.00;99.90
23083;DHT22;11709;52.420;10.538;2022-11-20T19:13:19;-1.00;99.90
23083;DHT22;11709;52.420;10.538;2022-11-20T19:17:21;-1.00;99.90
23083;DHT22;11709;52.420;10.538;2022-11-20T19:21:24;-1.00;99.90
23083;DHT22;11709;52.420;10.538;2022-11-20T19:25:26;-1.00;99.90
23083;DHT22;11709;52.420;10.538;2022-11-20T19:29:31;-0.80;99.90
23083;DHT22;11709;52.420;10.538;2022-11-20T19:33:33;-1.00;99.90
23083;DHT22;11709;52.420;10.538;2022-11-20T19:37:36;-1.10;99.90
23083;DHT22;11709;52.420;10.538;2022-11-20T19:41:40;-1.10;99.90
23083;DHT22;11709;52.420;10.538;2022-11-20T19:45:42;-1.10;99.90
23083;DHT22;11709;52.420;10.538;2022-11-20T19:49:45;2.30;99.90
23083;DHT22;11709;52.420;10.538;2022-11-20T19:53:47;-1.10;99.90
23083;DHT22;11709;52.420;10.538;2022-11-20T19:57:50;-1.00;99.90
23083;DHT22;11709;52.420;10.538;2022-11-20T20:01:52;-0.90;99.90
23083;DHT22;11709;52.420;10.538;2022-11-20T20:05:55;-0.80;99.90
23083;DHT22;11709;52.420;10.538;2022-11-20T20:09:59;-0.80;99.90
23083;DHT22;11709;52.420;10.538;2022-11-20T20:14:04;-0.70;99.90
23083;DHT22;11709;52.420;10.538;2022-11-20T20:18:06;-0.70;99.90
23083;DHT22;11709;52.420;10.538;2022-11-20T20:22:09;-0.70;99.90
23083;DHT22;11709;52.420;10.538;2022-11-20T20:30:14;-0.70;99.90
23083;DHT22;11709;52.420;10.538;2022-11-20T20:34:16;-0.20;99.90
23083;DHT22;11709;52.420;10.538;2022-11-20T20:42:22;-0.90;99.90
23083;DHT22;11709;52.420;10.538;2022-11-20T20:46:25;-0.70;99.90
23083;DHT22;11709;52.420;10.538;2022-11-20T20:50:27;-0.60;99.90
23083;DHT22;11709;52.420;10.538;2022-11-20T20:54:30;-0.40;99.90
23083;DHT22;11709;52.420;10.538;2022-11-20T20:58:32;-0.30;99.90
23083;DHT22;11709;52.420;10.538;2022-11-20T21:02:35;-0.90;99.90
23083;DHT22;11709;52.420;10.538;2022-11-20T21:06:37;-0.50;99.90
23083;DHT22;11709;52.420;10.538;2022-11-20T21:10:40;2.40;99.90
23083;DHT22;11709;52.420;10.538;2022-11-20T21:14:42;-0.30;99.90
23083;DHT22;11709;52.420;10.538;2022-11-20T21:18:45;-0.60;99.90
23083;DHT22;11709;52.420;10.538;2022-11-20T21:22:48;-0.10;99.90
23083;DHT22;11709;52.420;10.538;2022-11-20T21:26:50;-0.70;99.90
23083;DHT22;11709;52.420;10.538;2022-11-20T21:30:56;-0.40;99.90
23083;DHT22;11709;52.420;10.538;2022-11-20T21:34:57;-0.10;99.90
23083;DHT22;11709;52.420;10.538;2022-11-20T21:38:59;-1.10;99.90
23083;DHT22;11709;52.420;10.538;2022-11-20T21:43:02;-0.20;99.90
23083;DHT22;11709;52.420;10.538;2022-11-20T21:47:04;-0.40;99.90
23083;DHT22;11709;52.420;10.538;2022-11-20T21:51:09;0.00;99.90
23083;DHT22;11709;52.420;10.538;2022-11-20T21:55:12;-0.10;99.90
23083;DHT22;11709;52.420;10.538;2022-11-20T21:59:14;-0.10;99.90
23083;DHT22;11709;52.420;10.538;2022-11-20T22:03:17;-0.50;99.90
23083;DHT22;11709;52.420;10.538;2022-11-20T22:07:20;-0.20;99.90
23083;DHT22;11709;52.420;10.538;2022-11-20T22:11:22;-0.10;99.90
23083;DHT22;11709;52.420;10.538;2022-11-20T22:15:25;-0.10;99.90
23083;DHT22;11709;52.420;10.538;2022-11-20T22:19:27;-0.10;99.90
23083;DHT22;11709;52.420;10.538;2022-11-20T22:23:30;-0.10;99.90
23083;DHT22;11709;52.420;10.538;2022-11-20T22:27:32;-0.10;99.90
23083;DHT22;11709;52.420;10.538;2022-11-20T22:31:35;-0.10;99.90
23083;DHT22;11709;52.420;10.538;2022-11-20T22:35:37;0.00;99.90
23083;DHT22;11709;52.420;10.538;2022-11-20T22:39:40;-0.10;99.90
23083;DHT22;11709;52.420;10.538;2022-11-20T22:43:43;-0.20;99.90
23083;DHT22;11709;52.420;10.538;2022-11-20T22:47:46;-0.20;99.90
23083;DHT22;11709;52.420;10.538;2022-11-20T22:51:48;0.30;99.90
23083;DHT22;11709;52.420;10.538;2022-11-20T22:55:51;-0.10;99.90
23083;DHT22;11709;52.420;10.538;2022-11-20T22:59:53;-0.10;99.90
23083;DHT22;11709;52.420;10.538;2022-11-20T23:03:58;-0.10;99.90
23083;DHT22;11709;52.420;10.538;2022-11-20T23:08:01;-0.10;99.90
23083;DHT22;11709;52.420;10.538;2022-11-20T23:12:04;-0.20;99.90
23083;DHT22;11709;52.420;10.538;2022-11-20T23:16:09;0.30;99.90
23083;DHT22;11709;52.420;10.538;2022-11-20T23:20:12;-0.20;99.90
23083;DHT22;11709;52.420;10.538;2022-11-20T23:24:14;-0.40;99.90
23083;DHT22;11709;52.420;10.538;2022-11-20T23:28:17;-0.40;99.90
23083;DHT22;11709;52.420;10.538;2022-11-20T23:32:19;-0.20;99.90
23083;DHT22;11709;52.420;10.538;2022-11-20T23:36:22;-0.20;99.90
23083;DHT22;11709;52.420;10.538;2022-11-20T23:40:24;0.30;99.90
23083;DHT22;11709;52.420;10.538;2022-11-20T23:44:27;-0.10;99.90
23083;DHT22;11709;52.420;10.538;2022-11-20T23:48:32;-0.20;99.90
23083;DHT22;11709;52.420;10.538;2022-11-20T23:52:34;0.00;99.90
23083;DHT22;11709;52.420;10.538;2022-11-20T23:56:37;-1.20;99.90
